sensor_id;sensor_type;location;lat;lon;timestamp;pressure;altitude;pressure_sealevel;temperature;humidity
76590;BME280;65471;55.908;37.880;2024-01-11T00:02:12;97966.88;;;-7.74;93.66
76590;BME280;65471;55.908;37.880;2024-01-11T00:04:40;97948.06;;;-7.69;93.80
76590;BME280;65471;55.908;37.880;2024-01-11T00:07:07;97943.31;;;-7.66;93.67
76590;BME280;65471;55.908;37.880;2024-01-11T00:09:41;97926.59;;;-7.65;93.76
76590;BME280;65471;55.908;37.880;2024-01-11T00:12:08;97892.94;;;-7.77;94.18
76590;BME280;65471;55.908;37.880;2024-01-11T00:14:35;97908.69;;;-7.61;93.47
76590;BME280;65471;55.908;37.880;2024-01-11T00:17:03;97906.91;;;-7.60;93.58
76590;BME280;65471;55.908;37.880;2024-01-11T00:19:30;97896.72;;;-7.55;94.05
76590;BME280;65471;55.908;37.880;2024-01-11T00:21:57;97898.72;;;-7.49;94.52
76590;BME280;65471;55.908;37.880;2024-01-11T00:24:24;97883.63;;;-7.47;94.40
76590;BME280;65471;55.908;37.880;2024-01-11T00:26:51;97873.97;;;-7.47;94.01
76590;BME280;65471;55.908;37.880;2024-01-11T00:29:18;97871.16;;;-7.45;93.87
76590;BME280;65471;55.908;37.880;2024-01-11T00:31:45;97855.72;;;-7.40;93.81
76590;BME280;65471;55.908;37.880;2024-01-11T00:34:13;97853.94;;;-7.39;94.33
76590;BME280;65471;55.908;37.880;2024-01-11T00:36:40;97836.22;;;-7.37;94.17
76590;BME280;65471;55.908;37.880;2024-01-11T00:39:07;97837.69;;;-7.35;94.24
76590;BME280;65471;55.908;37.880;2024-01-11T00:41:34;97808.97;;;-7.36;94.43
76590;BME280;65471;55.908;37.880;2024-01-11T00:44:01;97828.31;;;-7.29;93.90
76590;BME280;65471;55.908;37.880;2024-01-11T00:46:27;97805.16;;;-7.25;94.15
76590;BME280;65471;55.908;37.880;2024-01-11T00:48:54;97792.22;;;-7.27;93.89
76590;BME280;65471;55.908;37.880;2024-01-11T00:51:22;97793.69;;;-7.24;94.02
76590;BME280;65471;55.908;37.880;2024-01-11T00:53:49;97779.25;;;-7.20;94.74
76590;BME280;65471;55.908;37.880;2024-01-11T00:56:17;97766.13;;;-7.20;94.70
76590;BME280;65471;55.908;37.880;2024-01-11T00:58:45;97770.38;;;-7.19;94.17
76590;BME280;65471;55.908;37.880;2024-01-11T01:01:12;97758.56;;;-7.15;94.66
76590;BME280;65471;55.908;37.880;2024-01-11T01:03:40;97751.31;;;-7.13;94.34
76590;BME280;65471;55.908;37.880;2024-01-11T01:06:07;97747.72;;;-7.12;94.70
76590;BME280;65471;55.908;37.880;2024-01-11T01:08:34;97730.81;;;-7.09;94.56
76590;BME280;65471;55.908;37.880;2024-01-11T01:11:01;97723.72;;;-7.09;94.59
76590;BME280;65471;55.908;37.880;2024-01-11T01:13:28;97706.69;;;-7.13;94.79
76590;BME280;65471;55.908;37.880;2024-01-11T01:15:55;97700.41;;;-7.04;95.11
76590;BME280;65471;55.908;37.880;2024-01-11T01:18:22;97700.88;;;-7.00;94.31
76590;BME280;65471;55.908;37.880;2024-01-11T01:20:50;97695.09;;;-6.96;94.96
76590;BME280;65471;55.908;37.880;2024-01-11T01:23:17;97685.25;;;-6.94;94.92
76590;BME280;65471;55.908;37.880;2024-01-11T01:25:44;97686.56;;;-6.89;94.94
76590;BME280;65471;55.908;37.880;2024-01-11T01:28:11;97663.19;;;-6.84;95.41
76590;BME280;65471;55.908;37.880;2024-01-11T01:30:39;97659.72;;;-6.77;95.06
76590;BME280;65471;55.908;37.880;2024-01-11T01:33:06;97646.84;;;-6.71;95.03
76590;BME280;65471;55.908;37.880;2024-01-11T01:35:33;97652.59;;;-6.68;95.20
76590;BME280;65471;55.908;37.880;2024-01-11T01:38:01;97638.91;;;-6.63;95.10
76590;BME280;65471;55.908;37.880;2024-01-11T01:40:32;97644.31;;;-6.56;95.36
76590;BME280;65471;55.908;37.880;2024-01-11T01:42:59;97628.66;;;-6.50;95.46
76590;BME280;65471;55.908;37.880;2024-01-11T01:45:26;97622.38;;;-6.49;95.08
76590;BME280;65471;55.908;37.880;2024-01-11T01:47:55;97596.75;;;-6.47;95.86
76590;BME280;65471;55.908;37.880;2024-01-11T01:50:22;97602.69;;;-6.30;95.79
76590;BME280;65471;55.908;37.880;2024-01-11T01:52:50;97601.63;;;-6.20;95.83
76590;BME280;65471;55.908;37.880;2024-01-11T01:55:19;97588.56;;;-6.14;95.64
76590;BME280;65471;55.908;37.880;2024-01-11T01:57:47;97574.59;;;-6.14;95.61
76590;BME280;65471;55.908;37.880;2024-01-11T02:00:15;97566.53;;;-6.13;95.64
76590;BME280;65471;55.908;37.880;2024-01-11T02:02:44;97533.97;;;-6.27;95.32
76590;BME280;65471;55.908;37.880;2024-01-11T02:05:14;97552.75;;;-6.00;95.85
76590;BME280;65471;55.908;37.880;2024-01-11T02:07:44;97543.84;;;-5.99;96.01
76590;BME280;65471;55.908;37.880;2024-01-11T02:10:12;97533.94;;;-5.97;95.58
76590;BME280;65471;55.908;37.880;2024-01-11T02:12:39;97526.06;;;-5.97;95.91
76590;BME280;65471;55.908;37.880;2024-01-11T02:15:07;97518.97;;;-5.96;95.68
76590;BME280;65471;55.908;37.880;2024-01-11T02:17:39;97519.13;;;-5.83;96.27
76590;BME280;65471;55.908;37.880;2024-01-11T02:20:07;97514.44;;;-5.73;95.81
76590;BME280;65471;55.908;37.880;2024-01-11T02:22:36;97494.19;;;-5.72;96.04
76590;BME280;65471;55.908;37.880;2024-01-11T02:25:05;97487.53;;;-5.68;95.82
76590;BME280;65471;55.908;37.880;2024-01-11T02:27:45;97488.25;;;-5.59;96.24
76590;BME280;65471;55.908;37.880;2024-01-11T02:30:12;97477.16;;;-5.55;96.41
76590;BME280;65471;55.908;37.880;2024-01-11T02:32:40;97467.09;;;-5.51;96.11
76590;BME280;65471;55.908;37.880;2024-01-11T02:35:07;97458.81;;;-5.48;96.56
76590;BME280;65471;55.908;37.880;2024-01-11T02:37:36;97421.44;;;-5.58;96.24
76590;BME280;65471;55.908;37.880;2024-01-11T02:40:04;97444.06;;;-5.42;96.30
76590;BME280;65471;55.908;37.880;2024-01-11T02:42:31;97431.38;;;-5.39;96.61
76590;BME280;65471;55.908;37.880;2024-01-11T02:44:58;97434.41;;;-5.35;96.41
76590;BME280;65471;55.908;37.880;2024-01-11T02:47:26;97433.50;;;-5.27;96.58
76590;BME280;65471;55.908;37.880;2024-01-11T02:49:53;97425.91;;;-5.15;96.62
76590;BME280;65471;55.908;37.880;2024-01-11T02:52:20;97425.78;;;-5.07;96.72
76590;BME280;65471;55.908;37.880;2024-01-11T02:54:46;97408.94;;;-5.06;96.39
76590;BME280;65471;55.908;37.880;2024-01-11T02:57:13;97406.56;;;-5.01;96.69
76590;BME280;65471;55.908;37.880;2024-01-11T02:59:42;97402.75;;;-4.92;96.85
76590;BME280;65471;55.908;37.880;2024-01-11T03:02:09;97394.91;;;-4.85;96.71
76590;BME280;65471;55.908;37.880;2024-01-11T03:04:37;97390.88;;;-4.81;96.99
76590;BME280;65471;55.908;37.880;2024-01-11T03:07:04;97386.66;;;-4.75;96.94
76590;BME280;65471;55.908;37.880;2024-01-11T03:09:30;97389.19;;;-4.60;96.93
76590;BME280;65471;55.908;37.880;2024-01-11T03:11:57;97373.19;;;-4.59;97.07
76590;BME280;65471;55.908;37.880;2024-01-11T03:14:25;97371.59;;;-4.53;97.11
76590;BME280;65471;55.908;37.880;2024-01-11T03:16:53;97358.66;;;-4.41;97.14
76590;BME280;65471;55.908;37.880;2024-01-11T03:19:20;97373.28;;;-4.39;96.96
76590;BME280;65471;55.908;37.880;2024-01-11T03:21:47;97358.50;;;-4.33;97.43
76590;BME280;65471;55.908;37.880;2024-01-11T03:24:15;97347.19;;;-4.20;97.30
76590;BME280;65471;55.908;37.880;2024-01-11T03:26:42;97349.63;;;-4.12;97.54
76590;BME280;65471;55.908;37.880;2024-01-11T03:29:10;97336.91;;;-4.02;97.52
76590;BME280;65471;55.908;37.880;2024-01-11T03:31:38;97331.81;;;-3.96;97.47
76590;BME280;65471;55.908;37.880;2024-01-11T03:34:08;97315.19;;;-3.97;97.52
76590;BME280;65471;55.908;37.880;2024-01-11T03:36:36;97320.88;;;-3.93;97.23
76590;BME280;65471;55.908;37.880;2024-01-11T03:39:04;97312.16;;;-3.94;97.33
76590;BME280;65471;55.908;37.880;2024-01-11T03:41:31;97303.63;;;-3.96;97.26
76590;BME280;65471;55.908;37.880;2024-01-11T03:43:59;97313.97;;;-3.88;97.57
76590;BME280;65471;55.908;37.880;2024-01-11T03:46:28;97295.31;;;-3.86;97.22
76590;BME280;65471;55.908;37.880;2024-01-11T03:48:55;97293.09;;;-3.76;97.60
76590;BME280;65471;55.908;37.880;2024-01-11T03:51:24;97298.59;;;-3.64;97.74
76590;BME280;65471;55.908;37.880;2024-01-11T03:53:52;97273.19;;;-3.58;97.59
76590;BME280;65471;55.908;37.880;2024-01-11T03:56:20;97286.59;;;-3.47;97.63
76590;BME280;65471;55.908;37.880;2024-01-11T03:58:48;97272.78;;;-3.42;97.66
76590;BME280;65471;55.908;37.880;2024-01-11T04:01:15;97280.69;;;-3.35;97.98
76590;BME280;65471;55.908;37.880;2024-01-11T04:03:43;97277.66;;;-3.32;97.57
76590;BME280;65471;55.908;37.880;2024-01-11T04:06:21;97281.13;;;-3.25;97.77
76590;BME280;65471;55.908;37.880;2024-01-11T04:08:50;97276.44;;;-3.23;97.85
76590;BME280;65471;55.908;37.880;2024-01-11T04:11:18;97268.50;;;-3.16;97.47
76590;BME280;65471;55.908;37.880;2024-01-11T04:13:45;97266.44;;;-3.07;98.06
76590;BME280;65471;55.908;37.880;2024-01-11T04:16:12;97263.19;;;-3.03;97.74
76590;BME280;65471;55.908;37.880;2024-01-11T04:18:39;97268.66;;;-2.98;97.93
76590;BME280;65471;55.908;37.880;2024-01-11T04:21:08;97257.47;;;-2.93;97.64
76590;BME280;65471;55.908;37.880;2024-01-11T04:23:46;97262.31;;;-2.83;97.75
76590;BME280;65471;55.908;37.880;2024-01-11T04:26:13;97258.81;;;-2.70;98.03
76590;BME280;65471;55.908;37.880;2024-01-11T04:28:40;97250.25;;;-2.59;97.47
76590;BME280;65471;55.908;37.880;2024-01-11T04:31:09;97249.38;;;-2.46;97.64
76590;BME280;65471;55.908;37.880;2024-01-11T04:33:42;97244.84;;;-2.39;98.16
76590;BME280;65471;55.908;37.880;2024-01-11T04:36:10;97239.13;;;-2.36;97.78
76590;BME280;65471;55.908;37.880;2024-01-11T04:38:38;97235.63;;;-2.30;97.81
76590;BME280;65471;55.908;37.880;2024-01-11T04:41:09;97238.66;;;-2.19;97.80
76590;BME280;65471;55.908;37.880;2024-01-11T04:43:40;97204.72;;;-2.29;98.07
76590;BME280;65471;55.908;37.880;2024-01-11T04:48:40;97220.63;;;-2.04;98.32
76590;BME280;65471;55.908;37.880;2024-01-11T04:51:08;97215.72;;;-2.00;98.25
76590;BME280;65471;55.908;37.880;2024-01-11T04:53:39;97212.63;;;-1.97;97.72
76590;BME280;65471;55.908;37.880;2024-01-11T04:56:07;97206.31;;;-1.96;97.79
76590;BME280;65471;55.908;37.880;2024-01-11T04:58:35;97209.63;;;-2.01;97.96
76590;BME280;65471;55.908;37.880;2024-01-11T05:01:05;97203.03;;;-1.92;98.03
76590;BME280;65471;55.908;37.880;2024-01-11T05:03:32;97205.84;;;-1.86;97.81
76590;BME280;65471;55.908;37.880;2024-01-11T05:05:59;97204.41;;;-1.82;98.50
76590;BME280;65471;55.908;37.880;2024-01-11T05:08:27;97202.09;;;-1.79;98.00
76590;BME280;65471;55.908;37.880;2024-01-11T05:10:54;97198.44;;;-1.78;98.08
76590;BME280;65471;55.908;37.880;2024-01-11T05:13:22;97196.16;;;-1.74;98.01
76590;BME280;65471;55.908;37.880;2024-01-11T05:15:49;97188.00;;;-1.73;97.95
76590;BME280;65471;55.908;37.880;2024-01-11T05:18:16;97186.16;;;-1.72;98.33
76590;BME280;65471;55.908;37.880;2024-01-11T05:20:43;97180.88;;;-1.72;98.37
76590;BME280;65471;55.908;37.880;2024-01-11T05:23:10;97190.22;;;-1.69;98.05
76590;BME280;65471;55.908;37.880;2024-01-11T05:25:38;97184.50;;;-1.66;98.07
76590;BME280;65471;55.908;37.880;2024-01-11T05:28:05;97183.03;;;-1.62;97.86
76590;BME280;65471;55.908;37.880;2024-01-11T05:30:33;97174.47;;;-1.64;98.05
76590;BME280;65471;55.908;37.880;2024-01-11T05:33:00;97176.28;;;-1.58;98.15
76590;BME280;65471;55.908;37.880;2024-01-11T05:35:27;97174.78;;;-1.54;97.80
76590;BME280;65471;55.908;37.880;2024-01-11T05:37:55;97180.91;;;-1.53;98.00
76590;BME280;65471;55.908;37.880;2024-01-11T05:40:22;97112.63;;;-1.95;97.90
76590;BME280;65471;55.908;37.880;2024-01-11T05:42:49;97166.03;;;-1.54;97.89
76590;BME280;65471;55.908;37.880;2024-01-11T05:45:16;97161.53;;;-1.54;97.69
76590;BME280;65471;55.908;37.880;2024-01-11T05:47:48;97161.47;;;-1.47;98.22
76590;BME280;65471;55.908;37.880;2024-01-11T05:50:15;97159.00;;;-1.42;97.78
76590;BME280;65471;55.908;37.880;2024-01-11T05:52:42;97143.22;;;-1.37;97.71
76590;BME280;65471;55.908;37.880;2024-01-11T05:55:09;97148.53;;;-1.37;98.14
76590;BME280;65471;55.908;37.880;2024-01-11T05:57:36;97143.44;;;-1.39;97.90
76590;BME280;65471;55.908;37.880;2024-01-11T06:00:04;97145.88;;;-1.37;97.50
76590;BME280;65471;55.908;37.880;2024-01-11T06:02:33;97145.06;;;-1.37;97.43
76590;BME280;65471;55.908;37.880;2024-01-11T06:05:00;97134.03;;;-1.34;97.88
76590;BME280;65471;55.908;37.880;2024-01-11T06:07:28;97143.16;;;-1.30;97.94
76590;BME280;65471;55.908;37.880;2024-01-11T06:09:56;97133.75;;;-1.26;97.29
76590;BME280;65471;55.908;37.880;2024-01-11T06:12:23;97140.44;;;-1.24;97.73
76590;BME280;65471;55.908;37.880;2024-01-11T06:14:49;97078.25;;;-1.58;97.62
76590;BME280;65471;55.908;37.880;2024-01-11T06:17:17;97141.97;;;-1.16;97.91
76590;BME280;65471;55.908;37.880;2024-01-11T06:19:44;97136.22;;;-1.13;98.05
76590;BME280;65471;55.908;37.880;2024-01-11T06:22:11;97128.88;;;-1.11;97.83
76590;BME280;65471;55.908;37.880;2024-01-11T06:24:38;97124.75;;;-1.07;98.05
76590;BME280;65471;55.908;37.880;2024-01-11T06:27:05;97131.00;;;-1.01;97.66
76590;BME280;65471;55.908;37.880;2024-01-11T06:29:32;97106.69;;;-0.98;98.22
76590;BME280;65471;55.908;37.880;2024-01-11T06:31:59;97119.28;;;-0.93;97.76
76590;BME280;65471;55.908;37.880;2024-01-11T06:34:26;97115.59;;;-0.92;97.64
76590;BME280;65471;55.908;37.880;2024-01-11T06:36:54;97109.28;;;-0.91;97.79
76590;BME280;65471;55.908;37.880;2024-01-11T06:39:21;97117.50;;;-0.81;98.02
76590;BME280;65471;55.908;37.880;2024-01-11T06:41:49;97124.56;;;-0.75;98.27
76590;BME280;65471;55.908;37.880;2024-01-11T06:44:16;97115.09;;;-0.71;98.27
76590;BME280;65471;55.908;37.880;2024-01-11T06:46:43;97107.53;;;-0.67;97.88
76590;BME280;65471;55.908;37.880;2024-01-11T06:49:10;97111.53;;;-0.64;97.61
76590;BME280;65471;55.908;37.880;2024-01-11T06:51:38;97110.28;;;-0.62;97.31
76590;BME280;65471;55.908;37.880;2024-01-11T06:54:07;97101.75;;;-0.64;97.67
76590;BME280;65471;55.908;37.880;2024-01-11T06:56:34;97093.56;;;-0.62;97.46
76590;BME280;65471;55.908;37.880;2024-01-11T06:59:01;97097.84;;;-0.61;97.97
76590;BME280;65471;55.908;37.880;2024-01-11T07:01:28;97103.50;;;-0.58;97.91
76590;BME280;65471;55.908;37.880;2024-01-11T07:03:55;97096.94;;;-0.55;97.60
76590;BME280;65471;55.908;37.880;2024-01-11T07:06:22;97085.50;;;-0.56;97.89
76590;BME280;65471;55.908;37.880;2024-01-11T07:08:50;97084.22;;;-0.53;97.52
76590;BME280;65471;55.908;37.880;2024-01-11T07:11:17;97088.28;;;-0.50;97.75
76590;BME280;65471;55.908;37.880;2024-01-11T07:13:44;97087.25;;;-0.49;98.00
76590;BME280;65471;55.908;37.880;2024-01-11T07:16:11;97075.16;;;-0.45;97.50
76590;BME280;65471;55.908;37.880;2024-01-11T07:18:41;97076.56;;;-0.43;97.93
76590;BME280;65471;55.908;37.880;2024-01-11T07:21:09;97051.81;;;-0.55;97.42
76590;BME280;65471;55.908;37.880;2024-01-11T07:23:36;97070.78;;;-0.40;97.52
76590;BME280;65471;55.908;37.880;2024-01-11T07:26:03;97061.31;;;-0.36;97.46
76590;BME280;65471;55.908;37.880;2024-01-11T07:28:30;97062.25;;;-0.30;97.92
76590;BME280;65471;55.908;37.880;2024-01-11T07:30:57;97058.91;;;-0.25;97.15
76590;BME280;65471;55.908;37.880;2024-01-11T07:33:24;97051.75;;;-0.25;97.93
76590;BME280;65471;55.908;37.880;2024-01-11T07:35:51;97057.66;;;-0.23;97.61
76590;BME280;65471;55.908;37.880;2024-01-11T07:38:18;97062.50;;;-0.20;98.10
76590;BME280;65471;55.908;37.880;2024-01-11T07:40:45;97043.91;;;-0.20;97.63
76590;BME280;65471;55.908;37.880;2024-01-11T07:43:13;97045.72;;;-0.20;97.79
76590;BME280;65471;55.908;37.880;2024-01-11T07:45:40;97043.78;;;-0.13;97.60
76590;BME280;65471;55.908;37.880;2024-01-11T07:48:07;97043.09;;;-0.08;97.74
76590;BME280;65471;55.908;37.880;2024-01-11T07:50:35;97033.03;;;-0.06;96.98
76590;BME280;65471;55.908;37.880;2024-01-11T07:53:02;97032.16;;;0.00;96.72
76590;BME280;65471;55.908;37.880;2024-01-11T07:55:30;97033.41;;;0.09;97.60
76590;BME280;65471;55.908;37.880;2024-01-11T07:57:57;97037.44;;;0.12;97.10
76590;BME280;65471;55.908;37.880;2024-01-11T08:00:23;97021.25;;;0.13;97.08
76590;BME280;65471;55.908;37.880;2024-01-11T08:02:50;97023.13;;;0.13;96.85
76590;BME280;65471;55.908;37.880;2024-01-11T08:05:18;97017.56;;;0.14;97.04
76590;BME280;65471;55.908;37.880;2024-01-11T08:07:45;97017.34;;;0.16;97.31
76590;BME280;65471;55.908;37.880;2024-01-11T08:10:12;97013.41;;;0.07;97.25
76590;BME280;65471;55.908;37.880;2024-01-11T08:12:39;97018.47;;;0.08;96.42
76590;BME280;65471;55.908;37.880;2024-01-11T08:15:06;97011.34;;;0.09;97.13
76590;BME280;65471;55.908;37.880;2024-01-11T08:17:33;97022.75;;;0.09;96.76
76590;BME280;65471;55.908;37.880;2024-01-11T08:20:01;97017.56;;;0.03;96.83
76590;BME280;65471;55.908;37.880;2024-01-11T08:22:29;97016.06;;;-0.05;97.24
76590;BME280;65471;55.908;37.880;2024-01-11T08:25:00;97029.59;;;-0.07;97.14
76590;BME280;65471;55.908;37.880;2024-01-11T08:27:29;97046.22;;;-0.11;97.09
76590;BME280;65471;55.908;37.880;2024-01-11T08:29:56;97076.34;;;-0.18;97.07
76590;BME280;65471;55.908;37.880;2024-01-11T08:32:23;97051.97;;;-0.38;96.69
76590;BME280;65471;55.908;37.880;2024-01-11T08:34:58;97057.00;;;-0.60;97.57
76590;BME280;65471;55.908;37.880;2024-01-11T08:37:25;97050.41;;;-0.70;98.22
76590;BME280;65471;55.908;37.880;2024-01-11T08:39:52;97061.31;;;-0.78;97.61
76590;BME280;65471;55.908;37.880;2024-01-11T08:42:19;97069.59;;;-0.86;98.27
76590;BME280;65471;55.908;37.880;2024-01-11T08:44:46;97075.22;;;-0.94;98.05
76590;BME280;65471;55.908;37.880;2024-01-11T08:47:14;97083.91;;;-1.06;98.02
76590;BME280;65471;55.908;37.880;2024-01-11T08:49:42;97075.56;;;-1.21;98.86
76590;BME280;65471;55.908;37.880;2024-01-11T08:52:09;97085.88;;;-1.31;98.50
76590;BME280;65471;55.908;37.880;2024-01-11T08:54:36;97087.34;;;-1.35;98.66
76590;BME280;65471;55.908;37.880;2024-01-11T08:57:04;97060.28;;;-1.56;98.56
76590;BME280;65471;55.908;37.880;2024-01-11T08:59:31;97105.81;;;-1.47;98.29
76590;BME280;65471;55.908;37.880;2024-01-11T09:01:58;97097.81;;;-1.59;98.62
76590;BME280;65471;55.908;37.880;2024-01-11T09:04:40;97099.72;;;-1.66;99.00
76590;BME280;65471;55.908;37.880;2024-01-11T09:07:08;97127.44;;;-1.69;98.95
76590;BME280;65471;55.908;37.880;2024-01-11T09:09:35;97126.25;;;-1.73;98.84
76590;BME280;65471;55.908;37.880;2024-01-11T09:12:16;97135.88;;;-1.79;98.85
76590;BME280;65471;55.908;37.880;2024-01-11T09:14:43;97146.50;;;-1.79;98.93
76590;BME280;65471;55.908;37.880;2024-01-11T09:17:10;97139.19;;;-1.83;98.89
76590;BME280;65471;55.908;37.880;2024-01-11T09:19:38;97155.66;;;-1.81;98.82
76590;BME280;65471;55.908;37.880;2024-01-11T09:22:06;97156.16;;;-1.91;98.88
76590;BME280;65471;55.908;37.880;2024-01-11T09:24:37;97164.44;;;-2.06;98.59
76590;BME280;65471;55.908;37.880;2024-01-11T09:27:06;97176.28;;;-2.15;98.93
76590;BME280;65471;55.908;37.880;2024-01-11T09:29:33;97171.88;;;-2.21;98.51
76590;BME280;65471;55.908;37.880;2024-01-11T09:32:00;97189.88;;;-2.37;98.84
76590;BME280;65471;55.908;37.880;2024-01-11T09:34:28;97208.25;;;-2.49;98.31
76590;BME280;65471;55.908;37.880;2024-01-11T09:36:55;97205.84;;;-2.57;97.71
76590;BME280;65471;55.908;37.880;2024-01-11T09:39:26;97208.34;;;-2.62;97.92
76590;BME280;65471;55.908;37.880;2024-01-11T09:42:07;97209.56;;;-2.65;98.35
76590;BME280;65471;55.908;37.880;2024-01-11T09:44:38;97229.06;;;-2.59;97.98
76590;BME280;65471;55.908;37.880;2024-01-11T09:47:09;97224.44;;;-2.64;97.64
76590;BME280;65471;55.908;37.880;2024-01-11T09:49:43;97211.22;;;-2.70;97.87
76590;BME280;65471;55.908;37.880;2024-01-11T09:52:12;97200.31;;;-2.87;97.94
76590;BME280;65471;55.908;37.880;2024-01-11T09:54:41;97237.09;;;-2.86;97.35
76590;BME280;65471;55.908;37.880;2024-01-11T09:57:09;97236.69;;;-2.89;97.54
76590;BME280;65471;55.908;37.880;2024-01-11T09:59:37;97240.81;;;-2.93;97.42
76590;BME280;65471;55.908;37.880;2024-01-11T10:02:04;97248.75;;;-3.00;97.01
76590;BME280;65471;55.908;37.880;2024-01-11T10:04:35;97239.19;;;-3.08;97.02
76590;BME280;65471;55.908;37.880;2024-01-11T10:07:05;97237.38;;;-3.21;97.07
76590;BME280;65471;55.908;37.880;2024-01-11T10:09:35;97252.84;;;-3.18;96.44
76590;BME280;65471;55.908;37.880;2024-01-11T10:12:03;97255.28;;;-3.23;96.26
76590;BME280;65471;55.908;37.880;2024-01-11T10:14:31;97257.72;;;-3.28;96.08
76590;BME280;65471;55.908;37.880;2024-01-11T10:16:59;97245.97;;;-3.45;95.99
76590;BME280;65471;55.908;37.880;2024-01-11T10:19:27;97258.13;;;-3.38;95.67
76590;BME280;65471;55.908;37.880;2024-01-11T10:21:54;97278.09;;;-3.42;95.83
76590;BME280;65471;55.908;37.880;2024-01-11T10:24:21;97282.56;;;-3.49;95.68
76590;BME280;65471;55.908;37.880;2024-01-11T10:26:56;97289.63;;;-3.56;95.32
76590;BME280;65471;55.908;37.880;2024-01-11T10:29:30;97298.16;;;-3.61;95.79
76590;BME280;65471;55.908;37.880;2024-01-11T10:31:58;97308.94;;;-3.69;95.19
76590;BME280;65471;55.908;37.880;2024-01-11T10:34:25;97310.94;;;-3.78;95.19
76590;BME280;65471;55.908;37.880;2024-01-11T10:36:52;97312.16;;;-3.87;94.80
76590;BME280;65471;55.908;37.880;2024-01-11T10:39:24;97319.47;;;-3.89;94.98
76590;BME280;65471;55.908;37.880;2024-01-11T10:42:05;97320.88;;;-3.93;94.60
76590;BME280;65471;55.908;37.880;2024-01-11T10:44:34;97334.88;;;-4.00;94.39
76590;BME280;65471;55.908;37.880;2024-01-11T10:47:03;97337.28;;;-4.05;94.20
76590;BME280;65471;55.908;37.880;2024-01-11T10:49:37;97352.28;;;-4.12;94.16
76590;BME280;65471;55.908;37.880;2024-01-11T10:52:07;97342.13;;;-4.22;93.77
76590;BME280;65471;55.908;37.880;2024-01-11T10:54:36;97361.16;;;-4.26;93.84
76590;BME280;65471;55.908;37.880;2024-01-11T10:57:05;97380.81;;;-4.36;93.38
76590;BME280;65471;55.908;37.880;2024-01-11T10:59:36;97383.84;;;-4.39;93.29
76590;BME280;65471;55.908;37.880;2024-01-11T11:02:06;97392.72;;;-4.46;93.09
76590;BME280;65471;55.908;37.880;2024-01-11T11:04:35;97418.56;;;-4.63;92.71
76590;BME280;65471;55.908;37.880;2024-01-11T11:07:05;97415.84;;;-4.77;92.41
76590;BME280;65471;55.908;37.880;2024-01-11T11:09:34;97425.25;;;-4.96;92.19
76590;BME280;65471;55.908;37.880;2024-01-11T11:12:04;97430.66;;;-5.04;92.07
76590;BME280;65471;55.908;37.880;2024-01-11T11:14:34;97448.53;;;-5.21;91.55
76590;BME280;65471;55.908;37.880;2024-01-11T11:17:02;97453.13;;;-5.30;91.31
76590;BME280;65471;55.908;37.880;2024-01-11T11:19:29;97464.56;;;-5.38;90.71
76590;BME280;65471;55.908;37.880;2024-01-11T11:21:57;97470.09;;;-5.54;90.32
76590;BME280;65471;55.908;37.880;2024-01-11T11:24:24;97485.34;;;-5.64;90.28
76590;BME280;65471;55.908;37.880;2024-01-11T11:26:51;97487.28;;;-5.73;90.16
76590;BME280;65471;55.908;37.880;2024-01-11T11:29:19;97501.81;;;-5.92;89.73
76590;BME280;65471;55.908;37.880;2024-01-11T11:31:47;97500.84;;;-6.06;89.16
76590;BME280;65471;55.908;37.880;2024-01-11T11:34:39;97515.56;;;-6.27;89.83
76590;BME280;65471;55.908;37.880;2024-01-11T11:37:08;97499.81;;;-6.65;89.33
76590;BME280;65471;55.908;37.880;2024-01-11T11:39:36;97519.63;;;-6.77;88.48
76590;BME280;65471;55.908;37.880;2024-01-11T11:42:04;97540.78;;;-6.94;88.73
76590;BME280;65471;55.908;37.880;2024-01-11T11:44:32;97542.97;;;-7.05;88.26
76590;BME280;65471;55.908;37.880;2024-01-11T11:47:38;97552.78;;;-7.22;88.48
76590;BME280;65471;55.908;37.880;2024-01-11T11:50:08;97561.22;;;-7.35;88.45
76590;BME280;65471;55.908;37.880;2024-01-11T11:52:38;97577.22;;;-7.53;87.62
76590;BME280;65471;55.908;37.880;2024-01-11T11:55:07;97478.03;;;-8.37;87.14
76590;BME280;65471;55.908;37.880;2024-01-11T11:57:35;97552.63;;;-8.00;86.61
76590;BME280;65471;55.908;37.880;2024-01-11T12:00:03;97565.91;;;-8.02;86.67
76590;BME280;65471;55.908;37.880;2024-01-11T12:02:33;97597.31;;;-7.85;86.89
76590;BME280;65471;55.908;37.880;2024-01-11T12:05:04;97590.13;;;-7.91;86.67
76590;BME280;65471;55.908;37.880;2024-01-11T12:07:31;97597.38;;;-7.93;87.25
76590;BME280;65471;55.908;37.880;2024-01-11T12:09:58;97606.84;;;-7.92;86.86
76590;BME280;65471;55.908;37.880;2024-01-11T12:12:25;97602.28;;;-7.99;86.35
76590;BME280;65471;55.908;37.880;2024-01-11T12:14:53;97570.38;;;-8.27;86.83
76590;BME280;65471;55.908;37.880;2024-01-11T12:17:20;97608.38;;;-8.06;86.37
76590;BME280;65471;55.908;37.880;2024-01-11T12:19:47;97606.56;;;-8.06;86.57
76590;BME280;65471;55.908;37.880;2024-01-11T12:22:15;97615.56;;;-8.17;86.02
76590;BME280;65471;55.908;37.880;2024-01-11T12:24:42;97617.38;;;-8.17;86.05
76590;BME280;65471;55.908;37.880;2024-01-11T12:27:09;97619.38;;;-8.19;86.43
76590;BME280;65471;55.908;37.880;2024-01-11T12:29:38;97624.13;;;-8.23;86.58
76590;BME280;65471;55.908;37.880;2024-01-11T12:32:21;97647.22;;;-8.26;86.06
76590;BME280;65471;55.908;37.880;2024-01-11T12:34:49;97635.09;;;-8.27;86.12
76590;BME280;65471;55.908;37.880;2024-01-11T12:37:16;97634.25;;;-8.28;86.30
76590;BME280;65471;55.908;37.880;2024-01-11T12:39:43;97642.63;;;-8.33;86.24
76590;BME280;65471;55.908;37.880;2024-01-11T12:42:10;97648.88;;;-8.34;85.88
76590;BME280;65471;55.908;37.880;2024-01-11T12:44:37;97655.88;;;-8.42;85.95
76590;BME280;65471;55.908;37.880;2024-01-11T12:47:07;97651.50;;;-8.50;85.83
76590;BME280;65471;55.908;37.880;2024-01-11T12:49:34;97647.88;;;-8.65;85.24
76590;BME280;65471;55.908;37.880;2024-01-11T12:52:01;97656.72;;;-8.83;85.71
76590;BME280;65471;55.908;37.880;2024-01-11T12:54:32;97665.53;;;-8.84;85.41
76590;BME280;65471;55.908;37.880;2024-01-11T12:57:00;97663.09;;;-8.86;85.86
76590;BME280;65471;55.908;37.880;2024-01-11T12:59:28;97661.59;;;-8.88;85.08